createdAt,value
2023-03-27T00:01:13.282Z,7.61
2023-03-27T00:03:40.435Z,7.52
2023-03-27T00:06:17.502Z,7.38
2023-03-27T00:08:46.491Z,7.43
2023-03-27T00:11:14.018Z,7.56
2023-03-27T00:13:49.403Z,7.84
2023-03-27T00:16:22.358Z,7.70
2023-03-27T00:18:49.490Z,7.54
2023-03-27T00:21:16.211Z,7.66
2023-03-27T00:23:42.892Z,7.77
2023-03-27T00:26:10.739Z,7.57
2023-03-27T00:28:40.578Z,7.56
2023-03-27T00:31:11.704Z,7.45
2023-03-27T00:33:38.586Z,7.39
2023-03-27T00:36:06.232Z,6.93
2023-03-27T00:38:34.038Z,6.94
2023-03-27T00:41:01.125Z,7.16
2023-03-27T00:43:34.716Z,7.25
2023-03-27T00:46:21.361Z,7.35
2023-03-27T00:48:50.245Z,7.15
2023-03-27T00:51:18.308Z,6.73
2023-03-27T00:53:46.439Z,6.51
2023-03-27T00:56:13.581Z,6.57
2023-03-27T00:58:42.663Z,6.46
2023-03-27T01:01:12.318Z,6.38
2023-03-27T01:03:41.464Z,6.21
2023-03-27T01:06:11.199Z,5.93
2023-03-27T01:08:38.600Z,5.68
2023-03-27T01:11:23.954Z,6.03
2023-03-27T01:13:56.938Z,5.77
2023-03-27T01:16:40.126Z,6.13
2023-03-27T01:19:28.796Z,5.58
2023-03-27T01:22:14.398Z,5.78
2023-03-27T01:24:47.067Z,5.52
2023-03-27T01:27:23.277Z,5.43
2023-03-27T01:29:58.999Z,5.31
2023-03-27T01:32:42.886Z,5.09
2023-03-27T01:35:15.835Z,5.16
2023-03-27T01:37:51.841Z,5.52
2023-03-27T01:40:24.978Z,4.98
2023-03-27T01:42:59.728Z,4.98
2023-03-27T01:45:33.770Z,5.12
2023-03-27T01:48:04.169Z,5.34
2023-03-27T01:50:33.712Z,5.47
2023-03-27T01:53:03.992Z,5.30
2023-03-27T01:55:32.871Z,4.95
2023-03-27T01:58:14.365Z,5.32
2023-03-27T02:00:50.928Z,4.82
2023-03-27T02:03:27.002Z,5.13
2023-03-27T02:06:00.378Z,5.13
2023-03-27T02:08:30.442Z,5.01
2023-03-27T02:11:07.803Z,5.04
2023-03-27T02:13:40.380Z,5.01
2023-03-27T02:16:09.573Z,5.12
2023-03-27T02:18:41.848Z,5.02
2023-03-27T02:21:09.148Z,4.83
2023-03-27T02:23:38.967Z,4.89
2023-03-27T02:26:06.217Z,4.97
2023-03-27T02:28:53.115Z,4.88
2023-03-27T02:31:38.690Z,5.00
2023-03-27T02:34:24.107Z,4.95
2023-03-27T02:37:03.952Z,4.57
2023-03-27T02:39:50.622Z,4.50
2023-03-27T02:42:21.249Z,4.28
2023-03-27T02:45:10.291Z,4.28
2023-03-27T02:47:57.806Z,4.11
2023-03-27T02:50:34.394Z,3.99
2023-03-27T02:53:10.562Z,3.76
2023-03-27T02:55:39.077Z,4.02
2023-03-27T02:58:13.217Z,4.03
2023-03-27T03:01:03.826Z,3.87
2023-03-27T03:03:43.139Z,4.01
2023-03-27T03:06:30.118Z,3.81
2023-03-27T03:09:06.357Z,3.71
2023-03-27T03:11:46.272Z,4.03
2023-03-27T03:14:12.988Z,3.87
2023-03-27T03:16:45.626Z,3.61
2023-03-27T03:19:13.650Z,3.55
2023-03-27T03:21:40.940Z,3.38
2023-03-27T03:24:10.812Z,3.49
2023-03-27T03:26:38.048Z,3.31
2023-03-27T03:29:04.822Z,3.08
2023-03-27T03:31:45.490Z,3.18
2023-03-27T03:34:13.387Z,3.07
2023-03-27T03:36:42.196Z,3.25
2023-03-27T03:39:09.722Z,3.11
2023-03-27T03:41:36.355Z,3.16
2023-03-27T03:44:03.361Z,3.02
2023-03-27T03:46:30.035Z,3.04
2023-03-27T03:48:59.880Z,3.14
2023-03-27T03:51:29.569Z,2.91
2023-03-27T03:53:58.452Z,2.91
2023-03-27T03:56:29.642Z,2.74
2023-03-27T03:59:02.380Z,2.81
2023-03-27T04:01:31.080Z,2.85
2023-03-27T04:04:03.052Z,2.74
2023-03-27T04:06:49.779Z,2.58
2023-03-27T04:09:22.163Z,2.68
2023-03-27T04:12:09.053Z,2.72
2023-03-27T04:14:59.749Z,2.53
2023-03-27T04:18:03.906Z,2.46
2023-03-27T04:20:37.876Z,2.42
2023-03-27T04:23:33.855Z,2.51
2023-03-27T04:26:04.041Z,2.52
2023-03-27T04:28:56.800Z,2.49
2023-03-27T04:31:56.687Z,2.49
2023-03-27T04:34:48.997Z,2.53
2023-03-27T04:37:41.267Z,2.47
2023-03-27T04:40:21.998Z,2.35
2023-03-27T04:42:50.289Z,2.40
2023-03-27T04:45:17.960Z,2.37
2023-03-27T04:47:49.109Z,2.41
2023-03-27T04:50:16.703Z,2.39
2023-03-27T04:52:44.109Z,2.37
2023-03-27T04:55:12.470Z,2.23
2023-03-27T04:57:50.747Z,2.42
2023-03-27T05:00:19.765Z,2.34
2023-03-27T05:02:50.296Z,2.37
2023-03-27T05:05:27.002Z,2.34
2023-03-27T05:07:54.486Z,2.46
2023-03-27T05:10:28.817Z,2.44
2023-03-27T05:12:58.321Z,2.63
2023-03-27T05:15:25.825Z,2.53
2023-03-27T05:17:56.757Z,2.63
2023-03-27T05:20:30.802Z,2.51
2023-03-27T05:23:28.559Z,2.40
2023-03-27T05:26:00.116Z,2.21
2023-03-27T05:28:48.969Z,2.43
2023-03-27T05:31:26.357Z,2.53
2023-03-27T05:34:20.891Z,2.59
2023-03-27T05:37:13.624Z,2.32
2023-03-27T05:40:01.579Z,2.48
2023-03-27T05:42:58.530Z,2.41
2023-03-27T05:45:32.794Z,2.47
2023-03-27T05:50:52.086Z,2.45
2023-03-27T05:53:28.089Z,2.57
2023-03-27T05:56:20.566Z,2.63
2023-03-27T06:02:01.125Z,2.85
2023-03-27T06:04:49.843Z,2.86
2023-03-27T06:07:43.115Z,3.13
2023-03-27T06:10:34.151Z,3.31
2023-03-27T06:13:21.155Z,4.03
2023-03-27T06:16:06.921Z,3.82
2023-03-27T06:19:19.849Z,3.92
2023-03-27T06:22:17.500Z,3.78
2023-03-27T06:24:49.467Z,4.14
2023-03-27T06:27:21.571Z,4.43
2023-03-27T06:29:57.794Z,4.29
2023-03-27T06:32:39.061Z,4.15
2023-03-27T06:35:39.684Z,3.94
2023-03-27T06:38:19.044Z,3.96
2023-03-27T06:40:46.406Z,4.05
2023-03-27T06:43:22.424Z,4.03
2023-03-27T06:46:01.666Z,4.26
2023-03-27T06:49:33.736Z,4.30
2023-03-27T06:52:37.050Z,4.28
2023-03-27T06:58:33.323Z,4.97
2023-03-27T07:01:00.026Z,4.86
2023-03-27T07:03:38.814Z,4.92
2023-03-27T07:06:25.481Z,5.33
2023-03-27T07:09:01.498Z,5.33
2023-03-27T07:11:31.991Z,5.30
2023-03-27T07:14:07.119Z,5.36
2023-03-27T07:16:36.384Z,5.27
2023-03-27T07:19:03.627Z,5.40
2023-03-27T07:21:34.479Z,5.65
2023-03-27T07:26:44.931Z,5.95
2023-03-27T07:29:24.134Z,5.45
2023-03-27T07:32:02.833Z,5.47
2023-03-27T07:34:52.912Z,5.50
2023-03-27T07:37:40.926Z,5.64
2023-03-27T07:40:33.373Z,5.64
2023-03-27T07:43:44.057Z,5.45
2023-03-27T07:46:11.088Z,5.48
2023-03-27T07:48:38.799Z,5.56
2023-03-27T07:53:35.584Z,5.87
2023-03-27T07:56:18.338Z,6.93
2023-03-27T07:58:47.988Z,7.04
2023-03-27T08:01:19.615Z,7.07
2023-03-27T08:03:48.676Z,7.25
2023-03-27T08:06:17.485Z,7.37
2023-03-27T08:08:46.005Z,6.58
2023-03-27T08:11:23.173Z,6.75
2023-03-27T08:13:54.513Z,7.45
2023-03-27T08:16:21.927Z,7.91
2023-03-27T08:18:49.798Z,7.51
2023-03-27T08:21:21.053Z,7.95
2023-03-27T08:23:50.169Z,8.13
2023-03-27T08:27:08.420Z,7.56
2023-03-27T08:29:55.052Z,6.84
2023-03-27T08:32:21.930Z,7.01
2023-03-27T08:34:52.942Z,8.17
2023-03-27T08:37:25.968Z,8.82
2023-03-27T08:40:26.623Z,9.51
2023-03-27T08:43:13.862Z,9.98
2023-03-27T08:45:44.834Z,8.84
2023-03-27T08:48:18.422Z,9.65
2023-03-27T08:51:14.278Z,10.04
2023-03-27T08:53:59.960Z,8.55
2023-03-27T08:56:29.468Z,7.68
2023-03-27T08:58:57.306Z,8.38
2023-03-27T09:01:33.744Z,7.97
2023-03-27T09:04:13.026Z,8.19
2023-03-27T09:06:48.308Z,7.67
2023-03-27T09:09:35.452Z,6.86
2023-03-27T09:12:25.092Z,7.62
2023-03-27T09:15:00.022Z,7.86
2023-03-27T09:17:33.053Z,8.04
2023-03-27T09:20:08.957Z,8.70
2023-03-27T09:22:44.682Z,9.31
2023-03-27T09:25:40.272Z,9.04
2023-03-27T09:28:24.152Z,9.73
2023-03-27T09:31:01.734Z,9.14
2023-03-27T09:33:41.464Z,7.97
2023-03-27T09:36:13.090Z,8.66
2023-03-27T09:38:43.072Z,9.68
2023-03-27T09:41:42.625Z,9.08
2023-03-27T09:44:12.536Z,9.08
2023-03-27T09:46:44.080Z,8.46
2023-03-27T09:49:15.914Z,8.25
2023-03-27T09:51:52.040Z,8.44
2023-03-27T09:54:54.911Z,9.63
2023-03-27T09:57:40.415Z,8.95
2023-03-27T10:00:21.555Z,9.46
2023-03-27T10:02:59.333Z,11.07
2023-03-27T10:05:26.288Z,9.90
2023-03-27T10:07:57.831Z,11.02
2023-03-27T10:10:59.264Z,11.26
2023-03-27T10:13:50.332Z,10.75
2023-03-27T10:16:21.716Z,10.96
2023-03-27T10:18:59.680Z,10.15
2023-03-27T10:21:34.949Z,9.23
2023-03-27T10:24:05.288Z,8.19
2023-03-27T10:26:52.926Z,7.91
2023-03-27T10:29:23.276Z,7.88
2023-03-27T10:31:52.045Z,7.45
2023-03-27T10:34:40.477Z,6.96
2023-03-27T10:37:30.568Z,5.39
2023-03-27T10:40:35.706Z,4.76
2023-03-27T10:43:16.737Z,4.34
2023-03-27T10:46:23.206Z,4.35
2023-03-27T10:49:08.678Z,4.59
2023-03-27T10:51:53.844Z,5.41
2023-03-27T10:54:42.300Z,7.05
2023-03-27T10:57:21.744Z,8.69
2023-03-27T11:00:20.241Z,10.05
2023-03-27T11:02:57.737Z,12.80
2023-03-27T11:05:30.496Z,13.39
2023-03-27T11:08:17.427Z,14.10
2023-03-27T11:10:45.655Z,14.22
2023-03-27T11:13:23.234Z,12.23
2023-03-27T11:16:12.412Z,10.64
2023-03-27T11:19:09.757Z,9.18
2023-03-27T11:21:59.700Z,8.01
2023-03-27T11:24:50.880Z,7.59
2023-03-27T11:27:43.142Z,7.68
2023-03-27T11:30:23.397Z,8.76
2023-03-27T11:33:13.417Z,10.71
2023-03-27T11:35:45.421Z,10.69
2023-03-27T11:38:45.670Z,10.44
2023-03-27T11:41:15.483Z,10.11
2023-03-27T11:43:43.159Z,9.36
2023-03-27T11:46:50.431Z,8.16
2023-03-27T11:49:38.392Z,8.01
2023-03-27T11:52:12.628Z,8.51
2023-03-27T11:55:08.772Z,9.05
2023-03-27T11:58:02.621Z,11.47
2023-03-27T12:00:47.510Z,12.98
2023-03-27T12:03:34.774Z,12.63
2023-03-27T12:06:05.533Z,13.33
2023-03-27T12:08:41.224Z,12.55
2023-03-27T12:11:11.727Z,11.51
2023-03-27T12:14:08.953Z,11.08
2023-03-27T12:16:45.801Z,11.70
2023-03-27T12:19:27.433Z,12.00
2023-03-27T12:22:24.271Z,13.20
2023-03-27T12:24:59.739Z,12.63
2023-03-27T12:28:08.613Z,12.85
2023-03-27T12:31:40.400Z,13.56
2023-03-27T12:34:14.299Z,15.21
2023-03-27T12:36:44.655Z,14.45
2023-03-27T12:39:12.894Z,12.71
2023-03-27T12:41:43.487Z,11.84
2023-03-27T12:44:19.657Z,11.89
2023-03-27T12:47:07.112Z,11.27
2023-03-27T12:49:47.724Z,10.28
2023-03-27T12:52:21.967Z,10.22
2023-03-27T12:55:13.974Z,10.23
2023-03-27T12:58:12.683Z,9.64
2023-03-27T13:01:00.553Z,8.47
2023-03-27T13:03:36.676Z,8.24
2023-03-27T13:06:15.550Z,8.00
2023-03-27T13:08:48.424Z,7.63
2023-03-27T13:11:34.538Z,7.18
2023-03-27T13:14:01.539Z,6.68
2023-03-27T13:16:38.196Z,6.02
2023-03-27T13:19:06.067Z,6.13
2023-03-27T13:21:51.961Z,6.34
2023-03-27T13:24:37.196Z,6.16
2023-03-27T13:27:16.659Z,6.18
2023-03-27T13:29:50.188Z,5.95
2023-03-27T13:32:32.049Z,6.09
2023-03-27T13:35:24.751Z,6.03
2023-03-27T13:37:51.976Z,6.03
2023-03-27T13:40:34.348Z,5.86
2023-03-27T13:43:23.668Z,5.51
2023-03-27T13:45:59.188Z,5.33
2023-03-27T13:48:40.802Z,5.56
2023-03-27T13:51:32.912Z,5.63
2023-03-27T13:54:27.980Z,6.46
2023-03-27T13:56:54.737Z,6.95
2023-03-27T13:59:49.014Z,7.97
2023-03-27T14:02:46.023Z,8.68
2023-03-27T14:05:34.380Z,9.47
2023-03-27T14:08:17.475Z,10.04
2023-03-27T14:11:26.156Z,10.09
2023-03-27T14:14:16.299Z,10.57
2023-03-27T14:16:51.030Z,8.98
2023-03-27T14:19:24.298Z,8.89
2023-03-27T14:22:12.247Z,8.66
2023-03-27T14:25:02.667Z,6.95
2023-03-27T14:27:45.663Z,6.66
2023-03-27T14:30:21.752Z,6.85
2023-03-27T14:33:09.679Z,6.14
2023-03-27T14:35:41.375Z,6.14
2023-03-27T14:38:40.185Z,6.21
2023-03-27T14:41:17.661Z,5.70
2023-03-27T14:43:50.754Z,5.46
2023-03-27T14:46:24.584Z,5.33
2023-03-27T14:48:59.229Z,4.90
2023-03-27T14:51:37.412Z,4.67
2023-03-27T14:54:19.430Z,4.54
2023-03-27T14:56:50.830Z,5.73
2023-03-27T14:59:43.268Z,6.57
2023-03-27T15:02:30.959Z,6.94
2023-03-27T15:05:17.541Z,7.41
2023-03-27T15:07:49.210Z,7.30
2023-03-27T15:10:32.738Z,7.06
2023-03-27T15:13:26.235Z,7.21
2023-03-27T15:15:57.632Z,7.24
2023-03-27T15:18:33.037Z,7.38
2023-03-27T15:21:02.160Z,7.02
2023-03-27T15:23:39.007Z,6.94
2023-03-27T15:26:14.988Z,6.74
2023-03-27T15:29:01.783Z,7.21
2023-03-27T15:31:29.908Z,7.65
2023-03-27T15:34:03.599Z,7.57
2023-03-27T15:36:34.353Z,7.55
2023-03-27T15:39:02.658Z,7.52
2023-03-27T15:41:29.947Z,6.78
2023-03-27T15:44:15.821Z,6.33
2023-03-27T15:46:49.004Z,6.19
2023-03-27T15:49:23.849Z,6.22
2023-03-27T15:51:51.013Z,6.18
2023-03-27T15:54:24.969Z,6.74
2023-03-27T15:56:52.020Z,7.42
2023-03-27T15:59:51.943Z,7.79
2023-03-27T16:02:20.611Z,7.84
2023-03-27T16:04:53.614Z,7.99
2023-03-27T16:07:25.447Z,8.01
2023-03-27T16:10:05.307Z,8.14
2023-03-27T16:12:33.390Z,8.05
2023-03-27T16:15:05.800Z,8.17
2023-03-27T16:17:50.948Z,7.91
2023-03-27T16:20:37.986Z,8.61
2023-03-27T16:23:06.289Z,9.34
2023-03-27T16:25:33.119Z,8.58
2023-03-27T16:27:59.789Z,7.95
2023-03-27T16:30:28.477Z,8.04
2023-03-27T16:32:59.087Z,8.00
2023-03-27T16:35:26.780Z,8.56
2023-03-27T16:37:54.183Z,8.61
2023-03-27T16:40:20.982Z,8.47
2023-03-27T16:42:47.845Z,8.21
2023-03-27T16:45:14.592Z,8.37
2023-03-27T16:47:41.897Z,8.51
2023-03-27T16:50:12.487Z,7.95
2023-03-27T16:52:39.188Z,7.98
2023-03-27T16:55:07.442Z,7.55
2023-03-27T16:57:34.709Z,7.07
2023-03-27T17:00:01.464Z,6.93
2023-03-27T17:02:28.877Z,6.78
2023-03-27T17:04:55.834Z,6.59
2023-03-27T17:07:24.986Z,6.81
2023-03-27T17:09:51.785Z,6.77
2023-03-27T17:12:18.553Z,6.68
2023-03-27T17:14:45.348Z,6.68
2023-03-27T17:17:20.389Z,6.31
2023-03-27T17:19:47.142Z,6.21
2023-03-27T17:22:13.764Z,6.06
2023-03-27T17:24:56.189Z,6.09
2023-03-27T17:27:25.885Z,6.13
2023-03-27T17:29:55.594Z,6.52
2023-03-27T17:32:22.593Z,6.41
2023-03-27T17:34:53.024Z,6.76
2023-03-27T17:37:19.875Z,6.65
2023-03-27T17:39:46.590Z,6.68
2023-03-27T17:42:19.397Z,6.65
2023-03-27T17:44:46.107Z,6.35
2023-03-27T17:47:13.055Z,6.24
2023-03-27T17:49:40.904Z,5.91
2023-03-27T17:52:12.047Z,6.02
2023-03-27T17:54:39.306Z,6.04
2023-03-27T17:59:47.488Z,6.10
2023-03-27T18:02:16.654Z,6.17
2023-03-27T18:04:43.519Z,5.93
2023-03-27T18:07:10.356Z,5.75
2023-03-27T18:09:36.975Z,5.90
2023-03-27T18:12:06.738Z,5.67
2023-03-27T18:14:33.377Z,5.49
2023-03-27T18:16:59.994Z,5.64
2023-03-27T18:19:26.626Z,5.43
2023-03-27T18:21:53.933Z,5.36
2023-03-27T18:24:20.650Z,5.33
2023-03-27T18:26:48.495Z,5.23
2023-03-27T18:29:18.277Z,5.19
2023-03-27T18:31:45.044Z,5.26
2023-03-27T18:34:18.954Z,5.34
2023-03-27T18:36:50.785Z,5.11
2023-03-27T18:39:18.290Z,5.07
2023-03-27T18:41:44.893Z,4.86
2023-03-27T18:44:12.604Z,4.82
2023-03-27T18:46:39.687Z,4.72
2023-03-27T18:49:17.538Z,4.63
2023-03-27T18:51:51.288Z,4.73
2023-03-27T18:54:20.265Z,4.51
2023-03-27T18:56:47.142Z,4.56
2023-03-27T18:59:14.497Z,4.77
2023-03-27T19:01:41.155Z,4.87
2023-03-27T19:04:09.826Z,4.65
2023-03-27T19:06:36.661Z,4.82
2023-03-27T19:09:03.849Z,4.90
2023-03-27T19:11:30.941Z,4.62
2023-03-27T19:14:29.828Z,4.73
2023-03-27T19:17:15.476Z,4.64
2023-03-27T19:20:11.800Z,4.61
2023-03-27T19:22:58.625Z,4.60
2023-03-27T19:25:30.020Z,4.64
2023-03-27T19:27:56.695Z,4.52
2023-03-27T19:30:23.441Z,4.53
2023-03-27T19:32:51.193Z,4.53
2023-03-27T19:35:17.964Z,4.47
2023-03-27T19:37:44.575Z,4.49
2023-03-27T19:40:13.182Z,4.45
2023-03-27T19:42:39.942Z,4.46
2023-03-27T19:45:06.832Z,4.46
2023-03-27T19:47:33.603Z,4.39
2023-03-27T19:50:00.970Z,4.24
2023-03-27T19:52:57.251Z,4.25
2023-03-27T19:55:28.134Z,4.25
2023-03-27T19:57:55.068Z,4.16
2023-03-27T20:00:22.376Z,4.15
2023-03-27T20:02:49.378Z,4.10
2023-03-27T20:05:18.425Z,4.29
2023-03-27T20:07:44.955Z,4.16
2023-03-27T20:10:11.622Z,4.26
2023-03-27T20:12:41.315Z,4.19
2023-03-27T20:15:12.187Z,4.06
2023-03-27T20:17:42.983Z,4.12
2023-03-27T20:20:12.642Z,4.28
2023-03-27T20:22:54.164Z,4.28
2023-03-27T20:25:21.663Z,4.26
2023-03-27T20:27:48.785Z,4.27
2023-03-27T20:30:15.414Z,4.36
2023-03-27T20:32:42.298Z,4.03
2023-03-27T20:35:20.708Z,3.78
2023-03-27T20:37:50.634Z,3.80
2023-03-27T20:40:25.284Z,3.70
2023-03-27T20:43:02.916Z,3.90
2023-03-27T20:45:31.131Z,3.75
2023-03-27T20:48:04.065Z,3.49
2023-03-27T20:50:31.652Z,3.63
2023-03-27T20:52:58.484Z,3.11
2023-03-27T20:55:33.694Z,3.15
2023-03-27T20:58:06.445Z,3.11
2023-03-27T21:00:33.260Z,3.01
2023-03-27T21:03:00.051Z,3.06
2023-03-27T21:05:27.770Z,3.18
2023-03-27T21:07:54.458Z,3.11
2023-03-27T21:10:21.360Z,3.12
2023-03-27T21:12:48.510Z,3.19
2023-03-27T21:15:18.221Z,3.20
2023-03-27T21:17:45.011Z,3.12
2023-03-27T21:20:12.474Z,3.29
2023-03-27T21:22:39.123Z,3.44
2023-03-27T21:25:05.980Z,3.46
2023-03-27T21:27:32.644Z,3.60
2023-03-27T21:29:59.546Z,3.55
2023-03-27T21:32:26.360Z,3.55
2023-03-27T21:34:52.929Z,3.54
2023-03-27T21:37:21.945Z,3.69
2023-03-27T21:39:48.681Z,3.69
2023-03-27T21:42:16.420Z,3.82
2023-03-27T21:44:44.304Z,3.73
2023-03-27T21:47:12.677Z,3.87
2023-03-27T21:49:39.237Z,3.97
2023-03-27T21:52:06.168Z,3.82
2023-03-27T21:54:35.166Z,3.92
2023-03-27T21:57:01.803Z,3.86
2023-03-27T21:59:30.248Z,3.79
2023-03-27T22:01:57.015Z,3.75
2023-03-27T22:04:23.721Z,3.68
2023-03-27T22:06:50.945Z,3.94
2023-03-27T22:09:17.985Z,3.82
2023-03-27T22:11:46.926Z,3.76
2023-03-27T22:14:13.536Z,3.64
2023-03-27T22:16:40.914Z,3.57
2023-03-27T22:19:07.480Z,3.67
2023-03-27T22:21:34.187Z,3.79
2023-03-27T22:24:00.822Z,3.72
2023-03-27T22:26:29.562Z,3.69
2023-03-27T22:28:57.134Z,3.52
2023-03-27T22:31:24.246Z,3.67
2023-03-27T22:33:50.966Z,3.73
2023-03-27T22:36:19.169Z,3.82
2023-03-27T22:38:46.428Z,3.70
2023-03-27T22:41:14.310Z,3.66
2023-03-27T22:43:41.683Z,3.54
2023-03-27T22:46:11.337Z,3.59
2023-03-27T22:48:38.275Z,3.91
2023-03-27T22:51:05.288Z,4.09
2023-03-27T22:53:32.669Z,3.73
2023-03-27T22:56:00.086Z,3.41
2023-03-27T22:58:29.801Z,3.41
2023-03-27T23:00:56.519Z,3.44
2023-03-27T23:03:24.005Z,3.30
2023-03-27T23:05:51.139Z,3.26
2023-03-27T23:08:21.379Z,3.33
2023-03-27T23:10:54.010Z,3.29
2023-03-27T23:13:21.206Z,3.36
2023-03-27T23:15:47.814Z,3.25
2023-03-27T23:18:14.541Z,3.37
2023-03-27T23:20:41.171Z,3.22
2023-03-27T23:23:07.854Z,3.35
2023-03-27T23:25:36.781Z,3.31
2023-03-27T23:28:06.419Z,3.37
2023-03-27T23:30:35.509Z,3.43
2023-03-27T23:33:02.316Z,3.36
2023-03-27T23:35:28.918Z,3.52
2023-03-27T23:37:55.584Z,3.48
2023-03-27T23:40:22.345Z,3.45
2023-03-27T23:42:49.347Z,3.52
2023-03-27T23:45:16.767Z,3.34
2023-03-27T23:47:43.426Z,3.27
2023-03-27T23:50:10.460Z,3.36
2023-03-27T23:52:37.076Z,3.34
2023-03-27T23:55:03.794Z,3.10
2023-03-27T23:57:30.504Z,3.31
2023-03-27T23:59:57.221Z,3.28
